sensor_id;sensor_type;location;lat;lon;timestamp;temperature;humidity
27667;DHT22;15074;50.940;5.282;2024-01-15T00:03:16;1.60;99.90
27667;DHT22;15074;50.940;5.282;2024-01-15T00:05:41;1.60;99.90
27667;DHT22;15074;50.940;5.282;2024-01-15T01:09:28;1.00;99.90
27667;DHT22;15074;50.940;5.282;2024-01-15T01:11:56;1.00;99.90
27667;DHT22;15074;50.940;5.282;2024-01-15T01:32:00;1.00;99.90
27667;DHT22;15074;50.940;5.282;2024-01-15T01:51:52;1.20;99.90
27667;DHT22;15074;50.940;5.282;2024-01-15T01:57:40;1.20;99.90
27667;DHT22;15074;50.940;5.282;2024-01-15T02:42:35;1.40;99.90
27667;DHT22;15074;50.940;5.282;2024-01-15T02:51:49;1.30;99.90
27667;DHT22;15074;50.940;5.282;2024-01-15T02:57:18;1.30;99.90
27667;DHT22;15074;50.940;5.282;2024-01-15T02:59:45;1.30;99.90
27667;DHT22;15074;50.940;5.282;2024-01-15T03:02:11;1.30;99.90
27667;DHT22;15074;50.940;5.282;2024-01-15T03:07:59;1.40;99.90
27667;DHT22;15074;50.940;5.282;2024-01-15T03:10:26;1.40;99.90
27667;DHT22;15074;50.940;5.282;2024-01-15T03:12:52;1.40;99.90
27667;DHT22;15074;50.940;5.282;2024-01-15T03:15:17;1.40;99.90
27667;DHT22;15074;50.940;5.282;2024-01-15T05:55:59;1.00;99.90
27667;DHT22;15074;50.940;5.282;2024-01-15T08:58:23;2.00;99.90
27667;DHT22;15074;50.940;5.282;2024-01-15T09:00:50;1.90;99.90
27667;DHT22;15074;50.940;5.282;2024-01-15T09:03:16;1.70;99.90
27667;DHT22;15074;50.940;5.282;2024-01-15T09:05:46;1.70;99.90
27667;DHT22;15074;50.940;5.282;2024-01-15T09:08:11;1.60;99.90
27667;DHT22;15074;50.940;5.282;2024-01-15T09:10:37;1.60;99.90
27667;DHT22;15074;50.940;5.282;2024-01-15T09:13:03;1.60;99.90
27667;DHT22;15074;50.940;5.282;2024-01-15T09:15:30;1.60;99.90
27667;DHT22;15074;50.940;5.282;2024-01-15T09:17:55;1.60;99.90
27667;DHT22;15074;50.940;5.282;2024-01-15T09:23:45;1.70;99.90
27667;DHT22;15074;50.940;5.282;2024-01-15T09:26:30;1.60;99.90
27667;DHT22;15074;50.940;5.282;2024-01-15T09:28:57;1.70;99.90
27667;DHT22;15074;50.940;5.282;2024-01-15T09:31:23;1.70;99.90
27667;DHT22;15074;50.940;5.282;2024-01-15T09:33:49;1.70;99.90
27667;DHT22;15074;50.940;5.282;2024-01-15T09:36:18;1.70;99.90
27667;DHT22;15074;50.940;5.282;2024-01-15T09:38:44;1.70;99.90
27667;DHT22;15074;50.940;5.282;2024-01-15T09:41:09;1.70;99.90
27667;DHT22;15074;50.940;5.282;2024-01-15T09:43:36;1.70;99.90
27667;DHT22;15074;50.940;5.282;2024-01-15T09:46:03;1.70;99.90
27667;DHT22;15074;50.940;5.282;2024-01-15T09:48:37;1.80;99.90
27667;DHT22;15074;50.940;5.282;2024-01-15T09:51:06;1.80;99.90
27667;DHT22;15074;50.940;5.282;2024-01-15T09:53:33;1.90;99.90
27667;DHT22;15074;50.940;5.282;2024-01-15T09:55:59;2.00;99.90
27667;DHT22;15074;50.940;5.282;2024-01-15T09:58:25;2.00;99.90
27667;DHT22;15074;50.940;5.282;2024-01-15T10:00:52;2.10;99.90
27667;DHT22;15074;50.940;5.282;2024-01-15T10:03:18;2.10;99.90
27667;DHT22;15074;50.940;5.282;2024-01-15T10:05:45;2.20;99.90
27667;DHT22;15074;50.940;5.282;2024-01-15T10:11:14;2.30;99.90
27667;DHT22;15074;50.940;5.282;2024-01-15T10:13:40;2.30;99.90
27667;DHT22;15074;50.940;5.282;2024-01-15T10:16:06;2.40;99.90
27667;DHT22;15074;50.940;5.282;2024-01-15T10:18:32;2.40;99.90
27667;DHT22;15074;50.940;5.282;2024-01-15T10:20:58;2.60;99.90
27667;DHT22;15074;50.940;5.282;2024-01-15T10:23:24;2.70;99.90
27667;DHT22;15074;50.940;5.282;2024-01-15T10:25:50;2.90;99.90
27667;DHT22;15074;50.940;5.282;2024-01-15T10:28:19;2.90;99.90
27667;DHT22;15074;50.940;5.282;2024-01-15T10:30:45;3.30;99.90
27667;DHT22;15074;50.940;5.282;2024-01-15T10:33:11;4.30;99.90
27667;DHT22;15074;50.940;5.282;2024-01-15T10:35:38;5.40;99.90
27667;DHT22;15074;50.940;5.282;2024-01-15T10:38:05;5.70;99.90
27667;DHT22;15074;50.940;5.282;2024-01-15T10:40:31;5.20;99.90
27667;DHT22;15074;50.940;5.282;2024-01-15T10:42:57;4.60;99.90
27667;DHT22;15074;50.940;5.282;2024-01-15T10:48:27;4.20;99.90
27667;DHT22;15074;50.940;5.282;2024-01-15T10:50:54;5.10;99.90
27667;DHT22;15074;50.940;5.282;2024-01-15T10:53:20;6.40;99.90
27667;DHT22;15074;50.940;5.282;2024-01-15T10:55:47;6.90;99.90
27667;DHT22;15074;50.940;5.282;2024-01-15T10:58:16;7.40;99.90
27667;DHT22;15074;50.940;5.282;2024-01-15T11:00:43;7.30;99.90
27667;DHT22;15074;50.940;5.282;2024-01-15T11:03:09;7.80;99.90
27667;DHT22;15074;50.940;5.282;2024-01-15T11:05:42;8.20;99.90
27667;DHT22;15074;50.940;5.282;2024-01-15T11:08:08;8.30;99.90
27667;DHT22;15074;50.940;5.282;2024-01-15T11:10:48;7.60;99.90
27667;DHT22;15074;50.940;5.282;2024-01-15T11:16:11;7.10;99.90
27667;DHT22;15074;50.940;5.282;2024-01-15T11:19:02;7.40;99.90
27667;DHT22;15074;50.940;5.282;2024-01-15T11:21:28;7.60;99.90
27667;DHT22;15074;50.940;5.282;2024-01-15T11:23:55;6.50;99.90
27667;DHT22;15074;50.940;5.282;2024-01-15T11:26:32;5.80;99.90
27667;DHT22;15074;50.940;5.282;2024-01-15T11:32:01;4.80;99.90
27667;DHT22;15074;50.940;5.282;2024-01-15T11:34:50;4.60;99.90
27667;DHT22;15074;50.940;5.282;2024-01-15T11:37:19;4.50;99.90
27667;DHT22;15074;50.940;5.282;2024-01-15T11:39:45;4.00;99.90
27667;DHT22;15074;50.940;5.282;2024-01-15T11:42:25;3.80;99.90
27667;DHT22;15074;50.940;5.282;2024-01-15T11:44:54;3.50;99.90
27667;DHT22;15074;50.940;5.282;2024-01-15T11:50:11;3.00;99.90
27667;DHT22;15074;50.940;5.282;2024-01-15T11:52:39;2.70;99.90
27667;DHT22;15074;50.940;5.282;2024-01-15T11:58:28;2.10;99.90
27667;DHT22;15074;50.940;5.282;2024-01-15T12:00:58;2.10;99.90
27667;DHT22;15074;50.940;5.282;2024-01-15T12:03:26;2.20;99.90
27667;DHT22;15074;50.940;5.282;2024-01-15T12:05:55;2.30;99.90
27667;DHT22;15074;50.940;5.282;2024-01-15T12:08:24;2.30;99.90
27667;DHT22;15074;50.940;5.282;2024-01-15T12:10:50;2.20;99.90
27667;DHT22;15074;50.940;5.282;2024-01-15T12:13:16;2.00;99.90
27667;DHT22;15074;50.940;5.282;2024-01-15T12:15:46;2.20;99.90
27667;DHT22;15074;50.940;5.282;2024-01-15T12:18:18;2.10;99.90
27667;DHT22;15074;50.940;5.282;2024-01-15T12:20:44;2.20;99.90
27667;DHT22;15074;50.940;5.282;2024-01-15T12:23:12;2.30;99.90
27667;DHT22;15074;50.940;5.282;2024-01-15T12:25:39;2.20;99.90
27667;DHT22;15074;50.940;5.282;2024-01-15T12:31:27;2.00;99.90
27667;DHT22;15074;50.940;5.282;2024-01-15T12:37:19;1.80;99.90
27667;DHT22;15074;50.940;5.282;2024-01-15T12:43:12;1.90;99.90
27667;DHT22;15074;50.940;5.282;2024-01-15T12:45:56;2.20;99.90
27667;DHT22;15074;50.940;5.282;2024-01-15T12:48:22;2.20;99.90
27667;DHT22;15074;50.940;5.282;2024-01-15T12:50:48;2.20;99.90
27667;DHT22;15074;50.940;5.282;2024-01-15T12:53:14;2.10;99.90
27667;DHT22;15074;50.940;5.282;2024-01-15T12:55:39;2.10;99.90
27667;DHT22;15074;50.940;5.282;2024-01-15T12:58:05;2.00;99.90
27667;DHT22;15074;50.940;5.282;2024-01-15T13:00:31;2.00;99.90
27667;DHT22;15074;50.940;5.282;2024-01-15T13:02:57;2.10;99.90
27667;DHT22;15074;50.940;5.282;2024-01-15T13:05:23;2.00;99.90
27667;DHT22;15074;50.940;5.282;2024-01-15T13:07:50;2.00;99.90
27667;DHT22;15074;50.940;5.282;2024-01-15T13:10:16;1.90;99.90
27667;DHT22;15074;50.940;5.282;2024-01-15T13:12:42;1.90;99.90
27667;DHT22;15074;50.940;5.282;2024-01-15T13:15:07;1.90;99.90
27667;DHT22;15074;50.940;5.282;2024-01-15T13:17:37;1.90;99.90
27667;DHT22;15074;50.940;5.282;2024-01-15T13:20:04;1.90;99.90
27667;DHT22;15074;50.940;5.282;2024-01-15T13:22:30;1.80;99.90
27667;DHT22;15074;50.940;5.282;2024-01-15T13:24:57;1.90;99.90
27667;DHT22;15074;50.940;5.282;2024-01-15T13:27:23;2.00;99.90
27667;DHT22;15074;50.940;5.282;2024-01-15T13:29:49;2.00;99.90
27667;DHT22;15074;50.940;5.282;2024-01-15T13:32:20;2.00;99.90
27667;DHT22;15074;50.940;5.282;2024-01-15T13:34:47;2.10;99.90
27667;DHT22;15074;50.940;5.282;2024-01-15T13:37:13;2.20;99.90
27667;DHT22;15074;50.940;5.282;2024-01-15T13:39:39;2.30;99.90
27667;DHT22;15074;50.940;5.282;2024-01-15T13:52:10;2.20;99.90
27667;DHT22;15074;50.940;5.282;2024-01-15T13:54:41;2.20;99.90
27667;DHT22;15074;50.940;5.282;2024-01-15T14:00:37;2.20;99.90
27667;DHT22;15074;50.940;5.282;2024-01-15T14:06:26;2.20;99.90
27667;DHT22;15074;50.940;5.282;2024-01-15T14:12:15;2.10;99.90
27667;DHT22;15074;50.940;5.282;2024-01-15T14:14:41;2.10;99.90
27667;DHT22;15074;50.940;5.282;2024-01-15T14:17:06;2.10;99.90
27667;DHT22;15074;50.940;5.282;2024-01-15T14:19:32;2.10;99.90
27667;DHT22;15074;50.940;5.282;2024-01-15T14:21:58;2.10;99.90
27667;DHT22;15074;50.940;5.282;2024-01-15T14:24:24;2.10;99.90
27667;DHT22;15074;50.940;5.282;2024-01-15T14:26:50;2.20;99.90
27667;DHT22;15074;50.940;5.282;2024-01-15T14:29:16;2.10;99.90
27667;DHT22;15074;50.940;5.282;2024-01-15T14:31:44;2.20;99.90
27667;DHT22;15074;50.940;5.282;2024-01-15T14:34:11;2.10;99.90
27667;DHT22;15074;50.940;5.282;2024-01-15T14:36:37;2.20;99.90
27667;DHT22;15074;50.940;5.282;2024-01-15T14:39:03;2.10;99.90
27667;DHT22;15074;50.940;5.282;2024-01-15T14:41:29;2.10;99.90
27667;DHT22;15074;50.940;5.282;2024-01-15T14:47:23;1.90;99.90
27667;DHT22;15074;50.940;5.282;2024-01-15T14:49:49;1.90;99.90
27667;DHT22;15074;50.940;5.282;2024-01-15T14:52:16;1.80;99.90
27667;DHT22;15074;50.940;5.282;2024-01-15T14:54:42;1.70;99.90
27667;DHT22;15074;50.940;5.282;2024-01-15T14:57:08;1.70;99.90
27667;DHT22;15074;50.940;5.282;2024-01-15T14:59:33;1.60;99.90
27667;DHT22;15074;50.940;5.282;2024-01-15T15:02:04;1.60;99.90
27667;DHT22;15074;50.940;5.282;2024-01-15T15:08:00;1.70;99.90
27667;DHT22;15074;50.940;5.282;2024-01-15T15:13:29;1.90;99.90
27667;DHT22;15074;50.940;5.282;2024-01-15T15:15:54;1.90;99.90
27667;DHT22;15074;50.940;5.282;2024-01-15T15:18:21;1.90;99.90
27667;DHT22;15074;50.940;5.282;2024-01-15T15:20:49;1.90;99.90
27667;DHT22;15074;50.940;5.282;2024-01-15T15:23:16;1.90;99.90
27667;DHT22;15074;50.940;5.282;2024-01-15T15:25:42;1.90;99.90
27667;DHT22;15074;50.940;5.282;2024-01-15T15:28:08;1.90;99.90
27667;DHT22;15074;50.940;5.282;2024-01-15T15:30:35;1.90;99.90
27667;DHT22;15074;50.940;5.282;2024-01-15T15:33:03;1.80;99.90
27667;DHT22;15074;50.940;5.282;2024-01-15T15:35:30;1.70;99.90
27667;DHT22;15074;50.940;5.282;2024-01-15T15:37:56;1.60;99.90
27667;DHT22;15074;50.940;5.282;2024-01-15T15:43:45;1.50;99.90
27667;DHT22;15074;50.940;5.282;2024-01-15T15:49:52;1.50;99.90
27667;DHT22;15074;50.940;5.282;2024-01-15T15:52:18;1.40;99.90
27667;DHT22;15074;50.940;5.282;2024-01-15T15:58:05;1.30;99.90
27667;DHT22;15074;50.940;5.282;2024-01-15T16:00:32;1.20;99.90
27667;DHT22;15074;50.940;5.282;2024-01-15T16:02:57;1.20;99.90
27667;DHT22;15074;50.940;5.282;2024-01-15T16:05:24;1.10;99.90
27667;DHT22;15074;50.940;5.282;2024-01-15T16:07:49;1.10;99.90
27667;DHT22;15074;50.940;5.282;2024-01-15T16:10:16;1.20;99.90
